Time;durP1;ratioP1;P1;durP2;ratioP2;P2;SDS_P1;SDS_P2;PMS_P1;PMS_P2;Temp;Humidity;BMP_temperature;BMP_pressure;BME280_temperature;BME280_humidity;BME280_pressure;Samples;Min_cycle;Max_cycle;Signal;HPM_P1;HPM_P2
2021/04/15 04:18:01;;;;;;;118.90;16.97;;;;;;;-2.48;94.98;99811.09;4936000;23;20130;-70
2021/04/15 04:20:29;;;;;;;33.53;13.60;;;;;;;-2.33;95.31;99803.38;4933083;29;20058;-70
2021/04/15 04:23:03;;;;;;;59.47;15.40;;;;;;;-2.53;95.95;99815.09;4936170;29;20468;-70
2021/04/15 04:25:45;;;;;;;176.68;20.50;;;;;;;-2.76;96.52;99818.09;4936086;29;20485;-70
2021/04/15 04:28:38;;;;;;;75.22;17.83;;;;;;;-2.90;96.68;99815.75;4934931;29;20111;-69
2021/04/15 04:31:11;;;;;;;200.35;19.08;;;;;;;-2.82;97.05;99812.72;4924580;23;20129;-70
2021/04/15 04:33:43;;;;;;;50.63;16.45;;;;;;;-2.52;97.35;99806.66;4922129;28;20087;-70
2021/04/15 04:36:10;;;;;;;96.28;19.05;;;;;;;-2.52;96.85;99814.28;4944506;29;20027;-70
2021/04/15 04:38:36;;;;;;;76.93;16.80;;;;;;;-2.57;96.30;99810.66;4940786;29;20031;-70
2021/04/15 04:41:09;;;;;;;85.45;18.00;;;;;;;-2.58;96.82;99811.44;4939411;28;20043;-69
2021/04/15 04:43:51;;;;;;;134.98;18.90;;;;;;;-2.55;96.86;99818.34;4934913;29;21353;-68
2021/04/15 04:46:21;;;;;;;85.68;19.33;;;;;;;-2.65;97.36;99817.00;4934360;29;20035;-71
2021/04/15 04:48:57;;;;;;;157.32;18.70;;;;;;;-2.66;97.48;99820.31;4934580;28;20035;-71
2021/04/15 04:51:30;;;;;;;116.18;19.05;;;;;;;-2.55;97.87;99821.75;4934162;29;20038;-72
2021/04/15 04:54:04;;;;;;;93.95;17.83;;;;;;;-2.60;96.98;99825.72;4934273;29;20559;-71
2021/04/15 04:56:39;;;;;;;243.45;22.45;;;;;;;-2.63;97.40;99835.72;4934160;29;20031;-72
2021/04/15 04:59:10;;;;;;;106.10;18.20;;;;;;;-2.60;97.26;99836.75;4934230;29;20079;-71
2021/04/15 05:01:35;;;;;;;251.63;22.50;;;;;;;-2.75;97.18;99840.16;4932998;28;20024;-72
2021/04/15 05:04:03;;;;;;;84.05;16.75;;;;;;;-2.56;96.71;99831.81;4934133;28;20102;-72
2021/04/15 05:06:31;;;;;;;228.95;23.08;;;;;;;-2.56;95.99;99836.88;4933997;29;20166;-71
2021/04/15 05:09:05;;;;;;;110.13;17.40;;;;;;;-2.50;95.78;99837.22;4934204;29;20062;-71
2021/04/15 05:11:35;;;;;;;62.92;16.63;;;;;;;-2.18;95.56;99842.22;4933840;28;20027;-72
2021/04/15 05:14:01;;;;;;;181.23;19.05;;;;;;;-2.33;94.78;99836.38;4933773;28;20039;-71
2021/04/15 05:16:37;;;;;;;120.72;16.50;;;;;;;-2.31;94.03;99833.94;4933779;29;20066;-72
2021/04/15 05:19:03;;;;;;;88.85;14.95;;;;;;;-2.29;93.96;99843.34;4933878;29;20063;-72
2021/04/15 05:21:31;;;;;;;230.18;21.20;;;;;;;-2.71;95.02;99847.09;4933978;28;20057;-72
2021/04/15 05:24:01;;;;;;;35.75;14.48;;;;;;;-2.49;96.51;99849.97;4933768;29;20063;-72
2021/04/15 05:26:33;;;;;;;;;;;;;;;-2.40;96.32;99850.44;4934088;29;20034;-72
2021/04/15 05:29:00;;;;;;;71.13;16.38;;;;;;;-2.26;95.98;99847.72;4933595;28;19919;-71
2021/04/15 05:31:28;;;;;;;36.92;14.10;;;;;;;-2.12;94.76;99856.91;4933307;28;20043;-72
2021/04/15 05:33:58;;;;;;;37.58;15.05;;;;;;;-2.21;94.36;99841.22;4933489;28;20031;-71
2021/04/15 05:36:39;;;;;;;47.33;16.10;;;;;;;-2.22;94.47;99854.72;4933776;28;20135;-71
2021/04/15 05:39:15;;;;;;;43.30;16.17;;;;;;;-2.25;94.52;99849.47;4933857;28;20091;-71
2021/04/15 05:41:46;;;;;;;83.00;14.93;;;;;;;-2.13;93.57;99855.13;4933647;28;20027;-71
2021/04/15 05:44:23;;;;;;;23.05;13.95;;;;;;;-1.64;94.04;99849.94;4933429;28;20039;-71
2021/04/15 05:46:51;;;;;;;70.45;16.25;;;;;;;-1.49;92.36;99853.19;4933455;29;20050;-71
2021/04/15 05:49:22;;;;;;;56.47;15.00;;;;;;;-1.59;91.53;99853.56;4933279;29;20036;-71
2021/04/15 05:51:55;;;;;;;35.10;15.18;;;;;;;-1.51;91.05;99854.78;4933508;29;20087;-72
2021/04/15 05:54:21;;;;;;;38.15;13.55;;;;;;;-1.20;90.83;99848.59;4933551;29;20488;-72
2021/04/15 05:56:57;;;;;;;67.15;14.18;;;;;;;-1.25;88.81;99850.94;4934106;29;20031;-72
2021/04/15 05:59:32;;;;;;;28.83;13.02;;;;;;;-0.98;88.32;99842.78;4933335;29;20075;-72
2021/04/15 06:02:29;;;;;;;21.70;13.13;;;;;;;-0.58;87.68;99847.97;4933363;29;20442;-73
2021/04/15 06:05:04;;;;;;;62.85;14.13;;;;;;;-1.30;88.26;99855.78;4930212;28;20445;-72
2021/04/15 06:07:30;;;;;;;21.55;12.35;;;;;;;-1.04;90.04;99854.44;4928811;28;20503;-72
2021/04/15 06:09:55;;;;;;;25.85;13.18;;;;;;;-0.91;88.15;99855.88;4932651;28;20027;-72
2021/04/15 06:12:45;;;;;;;29.48;12.63;;;;;;;-1.23;89.67;99856.06;4933037;29;20389;-72
2021/04/15 06:15:16;;;;;;;21.38;11.85;;;;;;;-1.03;88.66;99847.66;4933405;28;20039;-72
2021/04/15 06:17:48;;;;;;;29.92;12.52;;;;;;;-0.65;88.28;99853.59;4933154;29;20098;-72
2021/04/15 06:20:20;;;;;;;27.80;12.60;;;;;;;-0.31;85.43;99846.59;4932311;28;20443;-72
2021/04/15 06:22:50;;;;;;;17.77;12.25;;;;;;;-0.13;84.64;99850.75;4933309;28;20082;-72
2021/04/15 06:25:37;;;;;;;22.08;11.15;;;;;;;0.79;80.89;99846.78;4933067;28;21349;-72
2021/04/15 06:28:19;;;;;;;17.65;11.85;;;;;;;1.03;78.14;99843.47;4932975;29;20074;-72
2021/04/15 06:30:56;;;;;;;16.25;10.48;;;;;;;1.48;76.93;99852.72;4932452;29;20128;-72
2021/04/15 06:33:22;;;;;;;16.27;11.55;;;;;;;1.47;76.59;99854.41;4932571;29;20437;-72
2021/04/15 06:35:52;;;;;;;26.13;13.02;;;;;;;1.26;78.87;99854.53;4932587;28;20059;-72
2021/04/15 06:38:21;;;;;;;18.25;12.45;;;;;;;1.46;77.92;99846.72;4934841;29;20035;-72
2021/04/15 06:41:24;;;;;;;19.50;13.32;;;;;;;2.25;74.55;99848.53;4936440;29;20123;-72
2021/04/15 06:44:27;;;;;;;16.80;12.50;;;;;;;2.29;74.67;99856.34;4933091;28;20050;-70
2021/04/15 06:47:08;;;;;;;17.67;11.98;;;;;;;2.46;73.95;99848.34;4925309;28;20158;-72
2021/04/15 06:50:01;;;;;;;15.63;10.77;;;;;;;3.08;71.15;99846.81;4936429;29;20051;-72
2021/04/15 06:52:45;;;;;;;19.92;11.77;;;;;;;3.55;69.62;99845.59;4936806;28;20080;-72
2021/04/15 06:55:22;;;;;;;16.52;11.63;;;;;;;5.68;62.67;99829.94;4936562;29;20461;-73
2021/04/15 06:58:05;;;;;;;17.42;10.82;;;;;;;7.66;57.22;99832.03;4937328;29;20023;-73
2021/04/15 07:00:44;;;;;;;14.10;10.63;;;;;;;6.91;57.24;99831.13;4937110;29;20445;-73
2021/04/15 07:03:37;;;;;;;15.90;11.10;;;;;;;9.07;50.64;99819.38;4937284;29;20036;-73
2021/04/15 07:06:14;;;;;;;18.25;11.35;;;;;;;8.73;50.83;99819.19;4936588;29;20038;-73
2021/04/15 07:08:51;;;;;;;15.43;11.05;;;;;;;8.16;52.58;99830.78;4936885;29;20075;-72
2021/04/15 07:12:01;;;;;;;18.77;11.38;;;;;;;8.13;54.88;99826.47;4946472;29;20392;-73
2021/04/15 07:15:04;;;;;;;15.40;10.32;;;;;;;10.35;46.61;99814.53;4940210;28;20516;-73
2021/04/15 07:17:48;;;;;;;17.23;10.75;;;;;;;9.95;47.71;99819.66;4936408;29;20027;-73
2021/04/15 07:20:16;;;;;;;13.13;9.63;;;;;;;11.70;43.54;99816.69;4936331;29;20039;-73
2021/04/15 07:22:51;;;;;;;12.90;9.25;;;;;;;11.04;44.18;99817.88;4939647;29;20444;-73
2021/04/15 07:25:52;;;;;;;10.68;8.65;;;;;;;12.20;42.29;99816.41;4943037;28;20023;-73
2021/04/15 07:28:42;;;;;;;11.93;9.25;;;;;;;12.06;42.81;99828.63;4935527;29;20027;-71
2021/04/15 07:31:39;;;;;;;12.13;8.70;;;;;;;11.13;43.86;99834.28;4948942;29;20028;-71
2021/04/15 07:34:36;;;;;;;16.10;9.02;;;;;;;11.40;43.42;99831.56;4931506;29;20048;-71
2021/04/15 07:37:08;;;;;;;13.13;8.90;;;;;;;10.17;46.41;99835.22;4939600;29;20031;-71
2021/04/15 07:40:02;;;;;;;12.55;9.45;;;;;;;9.64;48.58;99841.16;4934570;29;20042;-71
2021/04/15 07:43:09;;;;;;;14.02;9.38;;;;;;;9.44;49.90;99835.94;4947023;29;20078;-71
2021/04/15 07:45:58;;;;;;;12.57;9.57;;;;;;;10.16;48.47;99824.00;4933813;29;20497;-72
2021/04/15 07:48:54;;;;;;;11.05;8.52;;;;;;;10.58;47.38;99824.88;4934422;29;20024;-72
2021/04/15 07:51:40;;;;;;;12.15;8.98;;;;;;;10.60;47.10;99830.94;4934019;29;20052;-71
2021/04/15 07:54:31;;;;;;;13.15;8.77;;;;;;;12.01;43.47;99826.06;4935885;29;20433;-71
2021/04/15 07:57:15;;;;;;;13.85;8.27;;;;;;;12.47;42.77;99824.81;4936210;29;20397;-72
2021/04/15 07:59:53;;;;;;;16.80;7.97;;;;;;;13.09;39.75;99825.94;4936144;29;20034;-72
2021/04/15 08:02:43;;;;;;;11.02;7.50;;;;;;;12.52;39.25;99830.84;4936101;29;20023;-72
2021/04/15 08:05:29;;;;;;;8.82;7.78;;;;;;;12.29;41.67;99831.91;4935082;29;20059;-72
2021/04/15 08:08:18;;;;;;;12.63;7.22;;;;;;;12.38;40.79;99836.19;4936134;29;20072;-72
2021/04/15 08:11:14;;;;;;;8.45;6.20;;;;;;;12.26;40.27;99844.94;4942121;29;20051;-72
2021/04/15 08:14:01;;;;;;;6.50;5.82;;;;;;;12.72;38.14;99841.09;4955249;28;20027;-72
2021/04/15 08:16:38;;;;;;;11.85;6.22;;;;;;;14.30;35.41;99821.69;4954230;28;20157;-72
2021/04/15 08:19:03;;;;;;;9.90;5.28;;;;;;;14.93;33.27;99829.31;4955017;28;20476;-72
2021/04/15 08:21:44;;;;;;;7.38;5.18;;;;;;;15.51;32.60;99833.38;4954593;28;20027;-72
2021/04/15 08:24:33;;;;;;;7.15;4.97;;;;;;;15.21;32.99;99829.66;4937164;28;20456;-72
2021/04/15 08:27:38;;;;;;;6.68;4.03;;;;;;;16.73;29.50;99819.25;4935408;29;20027;-72
2021/04/15 08:30:28;;;;;;;6.32;4.35;;;;;;;16.85;29.69;99820.66;4934360;29;20060;-72
2021/04/15 08:33:11;;;;;;;6.22;4.25;;;;;;;16.82;29.54;99823.34;4935503;29;20031;-72
2021/04/15 08:36:17;;;;;;;8.02;4.47;;;;;;;18.20;27.96;99814.94;4935796;29;20053;-72
2021/04/15 08:39:04;;;;;;;8.25;4.40;;;;;;;17.86;28.49;99823.03;4941320;29;20024;-72
2021/04/15 08:41:29;;;;;;;9.00;4.10;;;;;;;19.71;25.87;99806.97;4954007;28;20027;-72
2021/04/15 08:44:19;;;;;;;9.15;4.28;;;;;;;18.90;26.32;99811.72;4936896;28;20074;-72
2021/04/15 08:47:06;;;;;;;7.55;4.38;;;;;;;18.64;27.31;99816.06;4934711;29;20453;-72
2021/04/15 08:49:37;;;;;;;6.78;3.88;;;;;;;17.59;29.36;99812.41;4935226;29;20380;-72
2021/04/15 08:52:16;;;;;;;5.70;4.00;;;;;;;17.81;27.84;99804.81;4933973;29;20115;-72
2021/04/15 08:54:47;;;;;;;5.07;4.15;;;;;;;18.80;28.05;99799.81;4935147;29;20114;-72
2021/04/15 08:57:43;;;;;;;5.82;4.13;;;;;;;19.22;26.45;99803.53;4942207;29;20511;-72
2021/04/15 09:00:23;;;;;;;8.10;4.25;;;;;;;19.15;26.39;99799.44;4948875;28;20077;-72
2021/04/15 09:03:03;;;;;;;7.88;4.03;;;;;;;16.18;29.81;99800.50;4939389;29;20034;-72
2021/04/15 09:05:55;;;;;;;5.63;3.80;;;;;;;11.93;37.52;99816.59;4944045;29;20035;-72
2021/04/15 09:08:30;;;;;;;7.20;4.57;;;;;;;11.17;40.58;99817.81;4947753;29;20362;-71
2021/04/15 09:11:24;;;;;;;7.03;4.07;;;;;;;14.43;34.46;99794.53;4934617;29;20055;-72
2021/04/15 09:14:08;;;;;;;6.03;4.07;;;;;;;15.34;31.78;99804.16;4934668;29;20036;-72
2021/04/15 09:17:00;;;;;;;6.93;4.20;;;;;;;14.68;33.40;99791.53;4939391;29;20110;-72
2021/04/15 09:19:38;;;;;;;5.82;3.92;;;;;;;15.41;31.58;99795.28;4953676;29;20046;-72
2021/04/15 09:22:33;;;;;;;6.75;4.25;;;;;;;11.47;40.02;99812.50;4952471;28;20121;-72
2021/04/15 09:25:08;;;;;;;5.30;4.13;;;;;;;8.29;46.37;99832.63;4934871;29;20078;-72
2021/04/15 09:27:58;;;;;;;9.55;5.43;;;;;;;8.40;46.16;99820.69;4933731;29;20524;-72
2021/04/15 09:30:41;;;;;;;6.53;4.07;;;;;;;7.40;48.30;99825.72;4934480;29;20083;-72
2021/04/15 09:33:13;;;;;;;10.23;3.60;;;;;;;8.06;47.03;99818.66;4934217;28;20457;-71
2021/04/15 09:35:50;;;;;;;7.93;3.50;;;;;;;7.20;46.45;99818.63;4933672;29;20032;-71
2021/04/15 09:38:43;;;;;;;5.90;3.78;;;;;;;6.56;47.44;99811.72;4932503;29;20162;-72
2021/04/15 09:41:55;;;;;;;5.50;3.17;;;;;;;6.65;48.18;99807.56;4933540;29;20038;-71
2021/04/15 09:44:29;;;;;;;10.88;3.58;;;;;;;6.63;48.61;99813.56;4923597;28;20409;-71
2021/04/15 09:47:25;;;;;;;7.10;3.72;;;;;;;6.68;48.87;99806.75;4933268;29;20059;-71
2021/04/15 09:49:53;;;;;;;4.18;3.05;;;;;;;7.16;44.62;99800.53;4945065;28;20464;-71
2021/04/15 09:52:38;;;;;;;7.88;3.80;;;;;;;8.39;43.17;99789.69;4932892;29;20036;-71
2021/04/15 09:55:30;;;;;;;5.70;3.58;;;;;;;12.23;37.15;99773.91;4933415;28;20166;-72
2021/04/15 09:58:13;;;;;;;4.97;3.10;;;;;;;15.28;29.95;99762.47;4906739;28;20159;-72
2021/04/15 10:00:47;;;;;;;7.85;2.97;;;;;;;16.74;28.80;99752.03;4926627;29;20086;-72
2021/04/15 10:03:29;;;;;;;5.88;2.58;;;;;;;19.65;24.19;99751.13;4914153;29;20395;-72
2021/04/15 10:06:18;;;;;;;6.30;2.63;;;;;;;21.32;22.48;99741.38;4914213;29;20661;-72
2021/04/15 10:08:56;;;;;;;5.15;2.28;;;;;;;22.28;20.07;99742.84;4914108;29;20044;-72
2021/04/15 10:11:42;;;;;;;5.03;2.13;;;;;;;21.92;20.01;99736.75;4922226;29;20541;-72
2021/04/15 10:14:31;;;;;;;2.40;1.85;;;;;;;20.96;21.97;99742.09;4916734;29;20497;-72
2021/04/15 10:17:21;;;;;;;4.97;2.15;;;;;;;18.72;24.36;99755.47;4918240;29;20031;-72
2021/04/15 10:20:17;;;;;;;4.88;1.88;;;;;;;11.72;31.18;99781.22;4917829;29;20613;-72
2021/04/15 10:23:16;;;;;;;4.07;1.92;;;;;;;10.67;34.88;99779.94;4917839;29;20094;-71
2021/04/15 10:25:51;;;;;;;4.95;2.25;;;;;;;8.18;38.42;99783.50;4915902;29;20043;-71
2021/04/15 10:28:29;;;;;;;4.15;2.00;;;;;;;8.73;38.55;99777.84;4917926;29;20031;-71
2021/04/15 10:31:24;;;;;;;5.35;2.55;;;;;;;8.44;39.19;99773.38;4948343;23;20047;-70
2021/04/15 10:34:17;;;;;;;2.85;2.30;;;;;;;8.09;38.54;99772.22;4945553;29;20035;-70
2021/04/15 10:37:16;;;;;;;6.00;2.75;;;;;;;8.22;41.65;99782.69;4947228;29;20157;-70
2021/04/15 10:40:06;;;;;;;6.43;3.83;;;;;;;8.67;42.04;99778.69;4943848;28;20047;-70
2021/04/15 10:42:53;;;;;;;8.63;3.83;;;;;;;7.62;44.96;99780.41;4929326;28;20031;-70
2021/04/15 10:45:43;;;;;;;19.98;4.15;;;;;;;7.44;46.69;99781.94;4928983;29;20024;-70
2021/04/15 10:48:08;;;;;;;;;;;;;;;6.96;47.77;99782.22;4928696;29;20038;-70
2021/04/15 10:50:47;;;;;;;7.27;4.03;;;;;;;7.33;48.36;99788.69;4928491;29;20009;-70
2021/04/15 10:53:34;;;;;;;5.43;3.15;;;;;;;6.25;51.69;99788.09;4928827;29;20803;-70
2021/04/15 10:56:08;;;;;;;4.97;2.95;;;;;;;5.98;52.24;99785.06;4928590;29;20035;-70
2021/04/15 10:58:41;;;;;;;7.65;3.53;;;;;;;5.39;52.17;99798.56;4928763;29;20066;-70
2021/04/15 11:01:23;;;;;;;6.28;3.08;;;;;;;5.76;51.71;99784.69;4928154;29;20027;-70
2021/04/15 11:03:49;;;;;;;6.47;3.08;;;;;;;5.78;52.42;99792.41;4928891;29;20114;-70
2021/04/15 11:06:34;;;;;;;3.22;2.90;;;;;;;6.06;52.18;99796.38;4928530;29;20174;-70
2021/04/15 11:09:24;;;;;;;3.58;2.88;;;;;;;6.16;51.85;99785.38;4928857;29;20031;-70
2021/04/15 11:12:11;;;;;;;5.53;2.80;;;;;;;6.41;50.92;99777.19;4927613;29;20070;-70
2021/04/15 11:14:39;;;;;;;5.00;2.50;;;;;;;6.46;50.55;99774.69;4927264;29;20059;-70
2021/04/15 11:17:16;;;;;;;7.07;2.67;;;;;;;7.97;46.20;99763.50;4928362;29;20551;-70
2021/04/15 11:19:42;;;;;;;2.60;2.28;;;;;;;11.83;40.13;99753.47;4927112;29;20027;-71
2021/04/15 11:22:17;;;;;;;2.50;1.98;;;;;;;14.79;33.08;99737.38;4928249;29;20031;-71
2021/04/15 11:24:44;;;;;;;4.15;2.10;;;;;;;17.31;29.87;99727.69;4927747;29;20039;-71
2021/04/15 11:27:11;;;;;;;3.47;2.28;;;;;;;13.73;33.05;99751.34;4928192;29;20038;-71
2021/04/15 11:29:46;;;;;;;75.63;23.67;;;;;;;14.26;33.48;99737.47;4926717;29;20388;-71
2021/04/15 11:32:41;;;;;;;5.18;3.10;;;;;;;13.80;32.24;99740.84;4926452;29;20509;-71
2021/04/15 11:35:14;;;;;;;2.20;2.00;;;;;;;11.09;36.41;99768.56;4927158;29;21402;-70
2021/04/15 11:37:42;;;;;;;10.93;2.65;;;;;;;9.79;39.26;99760.97;4927822;29;20564;-71
2021/04/15 11:40:32;;;;;;;2.63;2.30;;;;;;;12.01;36.33;99742.94;4927618;29;20074;-71
2021/04/15 11:43:17;;;;;;;3.75;2.72;;;;;;;9.95;40.35;99757.50;4927789;29;20039;-71
2021/04/15 11:45:42;;;;;;;3.08;2.55;;;;;;;11.48;39.56;99762.31;4926222;29;20361;-71
2021/04/15 11:48:17;;;;;;;3.78;2.53;;;;;;;11.14;40.99;99771.16;4927556;29;20034;-71
2021/04/15 11:50:45;;;;;;;6.47;3.05;;;;;;;8.45;47.20;99782.84;4927493;29;20031;-70
2021/04/15 11:53:46;;;;;;;4.40;2.83;;;;;;;8.59;48.04;99777.78;4942405;29;20122;-70
2021/04/15 11:56:16;;;;;;;5.40;3.30;;;;;;;8.29;51.13;99773.25;4905951;29;20047;-70
2021/04/15 11:58:41;;;;;;;;;;;;;;;8.15;52.08;99772.28;4923614;29;20068;-70
2021/04/15 12:01:06;;;;;;;3.47;3.13;;;;;;;5.90;57.49;99797.78;4927514;29;20289;-70
2021/04/15 12:03:34;;;;;;;4.75;3.25;;;;;;;6.06;61.08;99793.78;4927537;29;20503;-70
2021/04/15 12:06:08;;;;;;;4.05;3.17;;;;;;;6.67;54.76;99784.41;4927385;29;20031;-71
2021/04/15 12:08:37;;;;;;;6.63;4.07;;;;;;;5.75;57.69;99780.34;4927215;29;20401;-70
2021/04/15 12:11:15;;;;;;;6.00;3.30;;;;;;;6.67;55.00;99766.38;4926520;29;20027;-68
2021/04/15 12:13:46;;;;;;;4.70;3.10;;;;;;;7.10;50.31;99769.50;4942351;29;20107;-70
2021/04/15 12:16:36;;;;;;;3.55;2.88;;;;;;;8.09;49.54;99747.28;4925973;29;20520;-70
2021/04/15 12:19:20;;;;;;;2.60;2.40;;;;;;;8.49;46.20;99753.59;4926749;29;20163;-70
2021/04/15 12:22:07;;;;;;;4.72;3.10;;;;;;;9.28;44.24;99741.88;4926041;29;20031;-70
2021/04/15 12:24:43;;;;;;;2.83;2.58;;;;;;;9.72;43.47;99738.56;4927501;29;20500;-70
2021/04/15 12:27:19;;;;;;;4.25;2.53;;;;;;;9.58;43.56;99733.34;4927236;29;20452;-70
2021/04/15 12:30:10;;;;;;;6.65;4.10;;;;;;;10.15;40.89;99734.19;4927035;29;20034;-70
2021/04/15 12:32:47;;;;;;;5.47;3.35;;;;;;;9.63;41.27;99728.19;4926022;29;20075;-70
2021/04/15 12:35:38;;;;;;;3.92;2.85;;;;;;;9.22;42.21;99721.19;4926535;29;20047;-70
2021/04/15 12:38:17;;;;;;;3.15;2.85;;;;;;;9.19;41.14;99711.72;4926784;29;20074;-70
2021/04/15 12:40:46;;;;;;;8.35;4.43;;;;;;;9.36;40.28;99701.41;4926828;29;21592;-70
2021/04/15 12:43:16;;;;;;;2.85;2.53;;;;;;;9.66;37.75;99703.16;4926613;29;20032;-68
2021/04/15 12:45:46;;;;;;;4.95;3.92;;;;;;;10.32;36.58;99690.19;4926199;29;20079;-71
2021/04/15 12:48:29;;;;;;;;;;;;;;;10.63;35.56;99695.28;4927203;29;20063;-71
2021/04/15 12:50:54;;;;;;;1.95;1.80;;;;;;;10.75;36.33;99685.75;4925613;29;20013;-71
2021/04/15 12:53:20;;;;;;;2.88;2.15;;;;;;;11.07;35.79;99688.19;4926747;29;20039;-71
2021/04/15 12:55:49;;;;;;;3.05;2.03;;;;;;;12.27;36.83;99682.06;4926052;29;20024;-71
2021/04/15 12:58:16;;;;;;;2.83;2.17;;;;;;;11.99;34.75;99677.19;4926256;29;20031;-71
2021/04/15 13:00:46;;;;;;;2.38;1.95;;;;;;;11.30;35.83;99676.81;4926513;29;20036;-71
2021/04/15 13:03:34;;;;;;;3.22;2.33;;;;;;;9.49;39.20;99679.88;4926051;29;20038;-71
2021/04/15 13:06:09;;;;;;;4.88;3.28;;;;;;;8.10;42.72;99686.19;4924981;29;20027;-71
2021/04/15 13:08:44;;;;;;;3.42;2.22;;;;;;;8.42;41.83;99678.69;4925722;29;20032;-71
2021/04/15 13:11:15;;;;;;;3.28;2.30;;;;;;;8.88;42.91;99684.91;4925274;29;20120;-69
2021/04/15 13:13:50;;;;;;;5.20;2.08;;;;;;;8.81;41.99;99683.16;4926449;29;20094;-69
2021/04/15 13:16:34;;;;;;;5.25;2.97;;;;;;;7.63;43.56;99690.13;4926212;29;20491;-69
2021/04/15 13:19:02;;;;;;;5.53;3.15;;;;;;;7.48;43.19;99695.16;4925884;29;20583;-69
2021/04/15 13:21:34;;;;;;;4.15;2.67;;;;;;;8.03;43.67;99681.88;4925720;29;20374;-69
2021/04/15 13:24:01;;;;;;;4.10;2.58;;;;;;;8.30;42.65;99694.94;4926183;29;20031;-69
2021/04/15 13:26:29;;;;;;;3.30;2.80;;;;;;;7.53;44.63;99702.94;4926126;29;20032;-69
2021/04/15 13:28:56;;;;;;;5.82;2.45;;;;;;;7.05;49.19;99715.34;4926232;29;20174;-69
2021/04/15 13:31:40;;;;;;;4.32;3.00;;;;;;;6.47;54.97;99711.19;4924662;29;20544;-69
2021/04/15 13:34:12;;;;;;;3.72;2.90;;;;;;;6.41;57.24;99715.41;4925981;29;20059;-69
2021/04/15 13:36:39;;;;;;;3.97;3.00;;;;;;;6.32;56.40;99720.41;4925672;29;20039;-69
2021/04/15 13:39:08;;;;;;;4.78;3.30;;;;;;;6.21;56.62;99714.25;4926099;29;20031;-69
2021/04/15 13:41:58;;;;;;;3.70;3.33;;;;;;;6.35;58.40;99712.75;4925608;29;20412;-69
2021/04/15 13:44:48;;;;;;;4.72;3.72;;;;;;;6.69;57.44;99715.78;4925551;29;20034;-69
2021/04/15 13:47:32;;;;;;;;;;;;;;;6.58;57.83;99712.22;4925719;29;20024;-69
2021/04/15 13:49:58;;;;;;;4.07;3.35;;;;;;;6.88;56.61;99712.59;4926010;29;19918;-69
2021/04/15 13:52:32;;;;;;;4.60;3.42;;;;;;;6.39;57.06;99711.97;4925629;29;20396;-69
2021/04/15 13:55:17;;;;;;;5.60;3.53;;;;;;;6.88;57.02;99704.84;4925107;29;20505;-69
2021/04/15 13:57:45;;;;;;;4.85;3.78;;;;;;;7.04;57.22;99707.59;4925835;29;20151;-69
2021/04/15 14:00:13;;;;;;;4.32;3.15;;;;;;;7.32;53.66;99699.31;4925722;29;20027;-69
2021/04/15 14:02:42;;;;;;;5.72;2.80;;;;;;;7.30;53.21;99695.88;4925915;29;20576;-69
2021/04/15 14:05:28;;;;;;;3.13;2.83;;;;;;;6.64;52.61;99692.53;4925760;29;20036;-69
2021/04/15 14:07:58;;;;;;;4.03;2.75;;;;;;;6.67;53.30;99696.84;4913405;29;20900;-69
2021/04/15 14:10:26;;;;;;;3.67;3.13;;;;;;;6.59;51.67;99683.03;4925344;29;20031;-69
2021/04/15 14:13:19;;;;;;;5.40;3.42;;;;;;;7.04;50.33;99687.00;4925576;29;20118;-69
2021/04/15 14:15:48;;;;;;;2.90;2.63;;;;;;;7.47;51.56;99676.25;4925762;29;20044;-69
2021/04/15 14:18:19;;;;;;;3.40;3.05;;;;;;;7.61;49.98;99675.50;4924668;29;20035;-69
2021/04/15 14:20:49;;;;;;;4.47;3.40;;;;;;;7.96;50.21;99668.91;4925565;29;20035;-69
2021/04/15 14:23:21;;;;;;;8.50;3.28;;;;;;;8.36;47.63;99671.75;4917184;29;20111;-69
2021/04/15 14:25:48;;;;;;;3.88;3.30;;;;;;;7.88;47.19;99664.53;4907381;29;20769;-69
2021/04/15 14:28:19;;;;;;;3.95;3.28;;;;;;;8.33;46.50;99653.66;4924417;29;20532;-69
2021/04/15 14:30:45;;;;;;;3.35;2.95;;;;;;;8.99;46.29;99647.03;4924389;29;20496;-69
2021/04/15 14:33:21;;;;;;;4.07;3.20;;;;;;;9.47;43.38;99639.31;4925704;29;20035;-69
2021/04/15 14:35:47;;;;;;;4.28;3.10;;;;;;;9.49;43.01;99638.47;4924675;29;20031;-69
2021/04/15 14:38:26;;;;;;;4.45;3.50;;;;;;;9.41;43.91;99629.84;4925557;29;20114;-69
2021/04/15 14:40:57;;;;;;;5.55;3.33;;;;;;;9.76;43.72;99628.97;4924547;29;20043;-69
2021/04/15 14:43:31;;;;;;;3.33;3.03;;;;;;;9.77;42.76;99622.94;4925377;29;20713;-69
2021/04/15 14:45:57;;;;;;;3.05;2.75;;;;;;;10.12;42.41;99619.44;4925537;29;20242;-69
2021/04/15 14:48:32;;;;;;;7.22;4.65;;;;;;;10.33;42.52;99619.38;4925528;29;20043;-69
2021/04/15 14:51:26;;;;;;;3.78;3.00;;;;;;;10.66;38.77;99607.16;4925210;29;20027;-69
2021/04/15 14:53:52;;;;;;;3.40;2.60;;;;;;;10.15;39.85;99611.63;4921815;29;20051;-69
2021/04/15 14:56:25;;;;;;;4.97;3.03;;;;;;;9.56;39.35;99615.19;4923727;29;20038;-69
2021/04/15 14:59:06;;;;;;;8.23;3.13;;;;;;;9.12;40.71;99616.88;4926548;29;20489;-69
2021/04/15 15:01:38;;;;;;;6.95;3.00;;;;;;;8.60;40.72;99610.72;4926755;29;20400;-69
2021/04/15 15:04:16;;;;;;;4.03;2.92;;;;;;;8.04;40.00;99608.75;4928990;29;20051;-70
2021/04/15 15:06:44;;;;;;;6.40;3.53;;;;;;;8.10;39.22;99606.19;4928749;29;20428;-69
2021/04/15 15:09:16;;;;;;;5.47;3.40;;;;;;;7.95;41.61;99599.22;4928976;29;20028;-69
2021/04/15 15:11:43;;;;;;;3.55;2.38;;;;;;;8.17;40.54;99595.91;4927362;29;20433;-69
2021/04/15 15:14:10;;;;;;;5.85;3.00;;;;;;;8.28;40.47;99597.69;4928603;29;20086;-69
2021/04/15 15:16:40;;;;;;;3.15;2.83;;;;;;;7.79;42.20;99606.03;4927313;29;20024;-69
2021/04/15 15:19:05;;;;;;;5.07;2.88;;;;;;;7.54;43.93;99611.84;4927910;29;20035;-69
2021/04/15 15:21:33;;;;;;;5.45;2.88;;;;;;;7.49;43.73;99629.84;4927222;29;20580;-69
2021/04/15 15:24:12;;;;;;;4.82;3.38;;;;;;;7.20;44.71;99612.44;4927399;29;20042;-69
2021/04/15 15:26:49;;;;;;;5.75;3.20;;;;;;;7.27;46.46;99612.50;4927422;29;20482;-69
2021/04/15 15:29:30;;;;;;;6.50;3.05;;;;;;;7.02;46.81;99624.28;4927717;29;20066;-69
2021/04/15 15:31:57;;;;;;;6.22;3.72;;;;;;;7.21;47.44;99618.47;4928130;29;20492;-67
2021/04/15 15:34:25;;;;;;;4.95;3.25;;;;;;;6.87;46.80;99622.41;4927870;29;20039;-67
2021/04/15 15:36:55;;;;;;;13.18;6.75;;;;;;;6.84;46.70;99618.09;4928366;29;20043;-67
2021/04/15 15:39:28;;;;;;;28.95;15.60;;;;;;;7.26;46.47;99624.50;4928373;29;20557;-67
2021/04/15 15:41:53;;;;;;;8.02;4.78;;;;;;;7.30;45.25;99613.38;4927889;29;20035;-67
2021/04/15 15:44:18;;;;;;;6.53;3.30;;;;;;;7.10;45.48;99609.75;4928420;29;20074;-67
2021/04/15 15:46:49;;;;;;;11.10;4.43;;;;;;;7.48;45.86;99613.50;4928111;29;20046;-67
2021/04/15 15:49:17;;;;;;;5.40;3.40;;;;;;;7.58;43.26;99609.28;4928084;29;20485;-67
2021/04/15 15:51:58;;;;;;;5.43;2.85;;;;;;;7.17;42.91;99606.38;4928251;29;20118;-67
2021/04/15 15:54:26;;;;;;;7.38;3.33;;;;;;;7.06;43.41;99608.88;4928196;29;20059;-67
2021/04/15 15:56:53;;;;;;;5.65;3.13;;;;;;;7.32;42.79;99606.50;4927853;29;20031;-67
2021/04/15 15:59:25;;;;;;;5.72;2.58;;;;;;;7.22;42.34;99604.72;4928051;29;20023;-67
2021/04/15 16:02:26;;;;;;;5.40;2.78;;;;;;;6.93;44.62;99612.16;4927571;29;20035;-67
2021/04/15 16:05:03;;;;;;;3.22;2.83;;;;;;;6.94;43.15;99614.75;4927780;29;20036;-67
2021/04/15 16:07:47;;;;;;;5.50;2.63;;;;;;;7.20;43.20;99598.66;4927885;29;20118;-68
2021/04/15 16:10:27;;;;;;;4.25;3.08;;;;;;;7.42;41.34;99602.28;4926758;29;20063;-71
2021/04/15 16:12:54;;;;;;;5.25;2.33;;;;;;;7.60;41.30;99591.28;4927607;29;20035;-68
2021/04/15 16:15:19;;;;;;;3.58;2.60;;;;;;;7.67;39.99;99595.59;4927747;29;20044;-68
2021/04/15 16:17:46;;;;;;;4.90;2.58;;;;;;;7.64;39.89;99600.72;4927842;29;20035;-68
2021/04/15 16:20:13;;;;;;;6.38;2.83;;;;;;;7.87;41.02;99598.31;4927622;29;20034;-68
2021/04/15 16:22:39;;;;;;;5.90;2.92;;;;;;;8.19;39.94;99599.34;4927654;29;20028;-68
2021/04/15 16:25:05;;;;;;;10.25;3.38;;;;;;;8.13;40.65;99595.88;4927453;29;20035;-68
2021/04/15 16:27:30;;;;;;;4.80;2.78;;;;;;;8.39;40.76;99590.88;4927335;29;20058;-68
2021/04/15 16:29:55;;;;;;;7.88;2.67;;;;;;;8.65;40.62;99586.63;4926814;29;21313;-68
2021/04/15 16:32:21;;;;;;;5.10;2.97;;;;;;;7.95;40.09;99584.59;4955529;23;20508;-70
2021/04/15 16:34:46;;;;;;;6.13;2.25;;;;;;;7.96;40.24;99583.75;4946738;28;20086;-70
2021/04/15 16:37:19;;;;;;;3.60;2.22;;;;;;;8.39;38.49;99581.41;4940583;29;20027;-70
2021/04/15 16:39:47;;;;;;;4.88;2.67;;;;;;;8.45;37.55;99580.53;4946483;29;20496;-70